createdAt,value
2018-09-18T00:01:37.022Z,3.10
2018-09-18T00:04:05.478Z,2.70
2018-09-18T00:06:34.421Z,2.70
2018-09-18T00:09:03.176Z,2.57
2018-09-18T00:11:31.218Z,2.80
2018-09-18T00:13:59.106Z,2.70
2018-09-18T00:16:27.069Z,2.80
2018-09-18T00:18:55.046Z,2.70
2018-09-18T00:21:23.513Z,3.07
2018-09-18T00:23:51.520Z,2.87
2018-09-18T00:26:19.554Z,2.80
2018-09-18T00:31:14.972Z,3.17
2018-09-18T00:33:42.962Z,3.07
2018-09-18T00:36:10.998Z,3.30
2018-09-18T00:38:38.990Z,2.80
2018-09-18T00:41:08.203Z,3.17
2018-09-18T00:43:36.284Z,2.77
2018-09-18T00:46:04.326Z,2.83
2018-09-18T00:48:32.911Z,2.80
2018-09-18T00:51:00.886Z,2.90
2018-09-18T00:53:28.823Z,2.90
2018-09-18T00:55:56.757Z,2.93
2018-09-18T00:58:24.835Z,2.80
2018-09-18T01:00:52.924Z,3.10
2018-09-18T01:03:21.835Z,3.50
2018-09-18T01:05:49.913Z,3.10
2018-09-18T01:08:17.853Z,2.90
2018-09-18T01:10:46.319Z,2.70
2018-09-18T01:13:14.295Z,3.33
2018-09-18T01:15:42.254Z,2.77
2018-09-18T01:18:10.267Z,3.03
2018-09-18T01:20:38.157Z,2.97
2018-09-18T01:23:06.155Z,2.67
2018-09-18T01:25:34.746Z,2.90
2018-09-18T01:28:02.853Z,3.10
2018-09-18T01:30:31.154Z,3.00
2018-09-18T01:32:59.175Z,2.87
2018-09-18T01:35:27.129Z,3.33
2018-09-18T01:37:55.156Z,3.00
2018-09-18T01:40:23.187Z,2.83
2018-09-18T01:42:51.325Z,2.70
2018-09-18T01:45:19.339Z,3.10
2018-09-18T01:47:47.269Z,3.10
2018-09-18T01:50:15.184Z,3.10
2018-09-18T01:52:43.675Z,3.10
2018-09-18T01:55:13.417Z,2.90
2018-09-18T01:57:41.375Z,2.90
2018-09-18T02:00:09.486Z,3.10
2018-09-18T02:02:37.638Z,2.80
2018-09-18T02:05:05.663Z,3.13
2018-09-18T02:07:33.653Z,2.70
2018-09-18T02:10:01.742Z,2.80
2018-09-18T02:12:31.493Z,2.80
2018-09-18T02:15:00.518Z,3.00
2018-09-18T02:17:29.574Z,2.80
2018-09-18T02:19:57.659Z,2.80
2018-09-18T02:22:25.580Z,2.97
2018-09-18T02:24:53.520Z,3.00
2018-09-18T02:27:21.490Z,3.27
2018-09-18T02:29:49.459Z,2.90
2018-09-18T02:32:17.428Z,3.10
2018-09-18T02:34:45.458Z,3.10
2018-09-18T02:37:13.477Z,3.07
2018-09-18T02:39:41.733Z,3.20
2018-09-18T02:42:09.803Z,3.00
2018-09-18T02:44:37.703Z,3.50
2018-09-18T02:49:32.863Z,3.00
2018-09-18T02:52:01.417Z,2.80
2018-09-18T02:54:29.458Z,3.33
2018-09-18T02:56:57.561Z,2.83
2018-09-18T02:59:25.468Z,2.87
2018-09-18T03:01:54.317Z,3.37
2018-09-18T03:04:22.228Z,3.20
2018-09-18T03:06:50.543Z,3.30
2018-09-18T03:09:18.522Z,3.50
2018-09-18T03:11:46.485Z,3.43
2018-09-18T03:14:14.454Z,3.30
2018-09-18T03:16:42.380Z,3.10
2018-09-18T03:19:10.398Z,3.40
2018-09-18T03:21:38.342Z,3.10
2018-09-18T03:24:06.374Z,3.50
2018-09-18T03:26:35.283Z,3.67
2018-09-18T03:29:03.402Z,3.63
2018-09-18T03:31:31.470Z,3.20
2018-09-18T03:33:59.442Z,3.53
2018-09-18T03:36:27.486Z,3.23
2018-09-18T03:38:55.441Z,3.60
2018-09-18T03:41:23.796Z,3.20
2018-09-18T03:43:51.910Z,3.30
2018-09-18T03:46:19.880Z,3.30
2018-09-18T03:48:47.930Z,3.10
2018-09-18T03:51:15.982Z,3.30
2018-09-18T03:53:43.925Z,3.23
2018-09-18T03:56:11.932Z,3.40
2018-09-18T03:58:40.012Z,3.00
2018-09-18T04:01:08.895Z,4.20
2018-09-18T04:03:37.206Z,3.47
2018-09-18T04:06:05.414Z,3.27
2018-09-18T04:08:33.478Z,3.20
2018-09-18T04:11:01.407Z,3.23
2018-09-18T04:13:29.355Z,3.90
2018-09-18T04:15:57.507Z,3.40
2018-09-18T04:18:26.536Z,3.00
2018-09-18T04:20:54.527Z,3.30
2018-09-18T04:23:22.646Z,3.13
2018-09-18T04:25:50.756Z,3.20
2018-09-18T04:28:18.724Z,3.00
2018-09-18T04:30:46.741Z,3.33
2018-09-18T04:33:15.317Z,3.30
2018-09-18T04:35:43.236Z,2.93
2018-09-18T04:38:11.209Z,3.30
2018-09-18T04:43:09.543Z,3.23
2018-09-18T04:45:37.840Z,3.20
2018-09-18T04:48:05.789Z,3.67
2018-09-18T04:50:33.854Z,2.80
2018-09-18T04:53:03.197Z,3.33
2018-09-18T04:55:31.384Z,3.00
2018-09-18T04:57:59.372Z,3.10
2018-09-18T05:00:27.352Z,3.30
2018-09-18T05:02:56.333Z,2.97
2018-09-18T05:05:25.034Z,3.33
2018-09-18T05:07:53.206Z,3.50
2018-09-18T05:10:21.232Z,2.83
2018-09-18T05:12:49.174Z,3.20
2018-09-18T05:15:17.129Z,3.10
2018-09-18T05:17:45.066Z,3.23
2018-09-18T05:20:13.281Z,3.20
2018-09-18T05:22:41.154Z,2.57
2018-09-18T05:25:08.894Z,2.97
2018-09-18T05:27:36.966Z,3.30
2018-09-18T05:30:05.054Z,3.10
2018-09-18T05:32:32.830Z,3.20
2018-09-18T05:35:03.747Z,3.00
2018-09-18T05:37:31.560Z,3.13
2018-09-18T05:39:59.475Z,3.23
2018-09-18T05:42:27.304Z,3.17
2018-09-18T05:44:55.125Z,3.33
2018-09-18T05:47:22.942Z,2.93
2018-09-18T05:49:50.796Z,2.87
2018-09-18T05:52:18.648Z,3.20
2018-09-18T05:54:46.433Z,3.40
2018-09-18T05:57:14.239Z,2.83
2018-09-18T05:59:42.090Z,3.20
2018-09-18T06:02:09.873Z,3.27
2018-09-18T06:04:37.645Z,3.00
2018-09-18T06:07:05.397Z,2.87
2018-09-18T06:09:33.269Z,3.10
2018-09-18T06:12:01.339Z,3.10
2018-09-18T06:14:29.203Z,3.10
2018-09-18T06:16:57.983Z,3.07
2018-09-18T06:19:26.022Z,2.93
2018-09-18T06:21:53.881Z,3.27
2018-09-18T06:24:21.660Z,2.90
2018-09-18T06:26:49.417Z,3.00
2018-09-18T06:29:17.313Z,3.13
2018-09-18T06:31:45.370Z,2.97
2018-09-18T06:34:13.163Z,3.03
2018-09-18T06:36:40.979Z,3.20
2018-09-18T06:39:10.375Z,3.07
2018-09-18T06:41:38.591Z,2.77
2018-09-18T06:44:06.420Z,3.13
2018-09-18T06:46:34.449Z,3.40
2018-09-18T06:49:02.367Z,3.50
2018-09-18T06:51:30.189Z,2.97
2018-09-18T06:53:57.988Z,3.10
2018-09-18T06:56:25.981Z,3.37
2018-09-18T06:58:53.707Z,3.20
2018-09-18T07:01:21.525Z,3.13
2018-09-18T07:03:49.581Z,3.30
2018-09-18T07:06:17.409Z,3.50
2018-09-18T07:08:45.476Z,3.00
2018-09-18T07:11:13.612Z,3.13
2018-09-18T07:13:41.633Z,3.40
2018-09-18T07:16:09.439Z,2.80
2018-09-18T07:18:37.552Z,3.20
2018-09-18T07:21:05.618Z,3.00
2018-09-18T07:23:33.497Z,3.60
2018-09-18T07:26:01.374Z,3.43
2018-09-18T07:28:29.175Z,3.17
2018-09-18T07:30:57.025Z,3.80
2018-09-18T07:33:25.039Z,3.47
2018-09-18T07:35:52.837Z,3.17
2018-09-18T07:38:20.646Z,3.17
2018-09-18T07:40:49.639Z,3.30
2018-09-18T07:43:18.095Z,3.90
2018-09-18T07:45:45.864Z,3.33
2018-09-18T07:48:14.154Z,3.23
2018-09-18T07:50:41.967Z,3.57
2018-09-18T07:53:09.743Z,3.30
2018-09-18T07:55:37.525Z,3.30
2018-09-18T07:58:05.332Z,3.20
2018-09-18T08:00:33.198Z,3.03
2018-09-18T08:03:01.037Z,3.70
2018-09-18T08:05:29.200Z,3.17
2018-09-18T08:07:57.328Z,3.40
2018-09-18T08:10:25.231Z,3.43
2018-09-18T08:12:53.024Z,3.50
2018-09-18T08:15:20.991Z,3.30
2018-09-18T08:17:48.810Z,3.50
2018-09-18T08:20:16.658Z,3.37
2018-09-18T08:22:44.632Z,3.33
2018-09-18T08:25:12.486Z,3.30
2018-09-18T08:27:40.268Z,3.50
2018-09-18T08:30:08.098Z,4.00
2018-09-18T08:32:35.973Z,3.27
2018-09-18T08:35:03.805Z,4.30
2018-09-18T08:37:31.622Z,3.60
2018-09-18T08:39:59.515Z,3.93
2018-09-18T08:42:27.244Z,4.20
2018-09-18T08:44:55.116Z,3.47
2018-09-18T08:47:23.060Z,3.47
2018-09-18T08:49:53.483Z,3.30
2018-09-18T08:52:21.407Z,3.10
2018-09-18T08:54:49.165Z,3.40
2018-09-18T08:57:17.933Z,3.07
2018-09-18T08:59:45.733Z,3.60
2018-09-18T09:02:13.574Z,3.77
2018-09-18T09:04:41.380Z,3.13
2018-09-18T09:07:09.172Z,2.80
2018-09-18T09:09:37.180Z,3.03
2018-09-18T09:12:04.988Z,3.30
2018-09-18T09:14:34.104Z,3.20
2018-09-18T09:17:01.766Z,3.00
2018-09-18T09:19:29.616Z,3.00
2018-09-18T09:21:57.466Z,3.57
2018-09-18T09:24:25.186Z,3.40
2018-09-18T09:26:52.932Z,3.03
2018-09-18T09:29:20.691Z,3.43
2018-09-18T09:31:48.458Z,3.40
2018-09-18T09:34:16.233Z,3.17
2018-09-18T09:36:44.041Z,3.20
2018-09-18T09:39:12.260Z,3.40
2018-09-18T09:41:40.032Z,3.20
2018-09-18T09:44:07.790Z,2.97
2018-09-18T09:46:35.685Z,3.43
2018-09-18T09:49:03.494Z,2.97
2018-09-18T09:51:31.330Z,3.07
2018-09-18T09:53:59.253Z,3.30
2018-09-18T09:56:27.818Z,2.80
2018-09-18T09:58:55.984Z,3.47
2018-09-18T10:01:29.690Z,3.00
2018-09-18T10:03:58.410Z,3.10
2018-09-18T10:06:26.780Z,3.10
2018-09-18T10:08:54.720Z,3.00
2018-09-18T10:11:22.724Z,3.10
2018-09-18T10:13:50.682Z,2.97
2018-09-18T10:16:18.540Z,3.00
2018-09-18T10:18:46.421Z,3.33
2018-09-18T10:21:15.321Z,3.47
2018-09-18T10:23:48.501Z,3.20
2018-09-18T10:26:16.535Z,2.80
2018-09-18T10:28:44.270Z,3.10
2018-09-18T10:31:12.217Z,2.90
2018-09-18T10:33:40.129Z,2.97
2018-09-18T10:36:08.138Z,3.00
2018-09-18T10:38:36.164Z,3.00
2018-09-18T10:41:04.269Z,2.80
2018-09-18T10:43:32.269Z,3.10
2018-09-18T10:46:00.314Z,3.20
2018-09-18T10:48:28.376Z,3.47
2018-09-18T10:50:56.956Z,3.13
2018-09-18T10:53:28.578Z,3.10
2018-09-18T10:55:56.425Z,3.10
2018-09-18T10:58:24.420Z,2.90
2018-09-18T11:00:52.470Z,3.10
2018-09-18T11:03:20.381Z,2.90
2018-09-18T11:05:48.280Z,3.50
2018-09-18T11:08:16.207Z,3.10
2018-09-18T11:10:44.550Z,3.50
2018-09-18T11:13:12.448Z,3.07
2018-09-18T11:15:40.313Z,3.07
2018-09-18T11:18:08.298Z,3.10
2018-09-18T11:20:36.080Z,2.90
2018-09-18T11:23:03.838Z,3.10
2018-09-18T11:25:31.782Z,3.10
2018-09-18T11:28:00.216Z,3.03
2018-09-18T11:30:28.166Z,3.23
2018-09-18T11:32:56.364Z,3.20
2018-09-18T11:35:24.178Z,2.87
2018-09-18T11:37:52.152Z,3.00
2018-09-18T11:40:20.278Z,3.00
2018-09-18T11:42:48.185Z,2.90
2018-09-18T11:45:15.973Z,2.70
2018-09-18T11:47:43.772Z,2.70
2018-09-18T11:50:11.615Z,2.70
2018-09-18T11:52:40.048Z,2.70
2018-09-18T11:55:08.138Z,3.00
2018-09-18T11:57:35.988Z,3.00
2018-09-18T12:00:03.934Z,2.90
2018-09-18T12:02:32.174Z,3.10
2018-09-18T12:05:00.138Z,3.10
2018-09-18T12:07:28.000Z,3.07
2018-09-18T12:09:56.786Z,3.40
2018-09-18T12:12:24.741Z,3.23
2018-09-18T12:14:52.612Z,3.70
2018-09-18T12:17:20.413Z,3.27
2018-09-18T12:19:48.316Z,3.30
2018-09-18T12:22:16.179Z,3.13
2018-09-18T12:24:43.974Z,3.40
2018-09-18T12:27:11.820Z,3.40
2018-09-18T12:29:39.995Z,3.20
2018-09-18T12:32:08.071Z,3.70
2018-09-18T12:34:36.138Z,3.13
2018-09-18T12:37:03.996Z,3.10
2018-09-18T12:39:31.850Z,3.10
2018-09-18T12:41:59.808Z,3.33
2018-09-18T12:44:27.550Z,3.07
2018-09-18T12:46:55.395Z,3.20
2018-09-18T12:49:23.305Z,3.23
2018-09-18T12:51:51.062Z,2.70
2018-09-18T12:54:19.913Z,3.30
2018-09-18T12:56:47.887Z,2.77
2018-09-18T12:59:15.807Z,3.10
2018-09-18T13:01:43.620Z,3.23
2018-09-18T13:04:11.526Z,3.03
2018-09-18T13:06:39.428Z,3.00
2018-09-18T13:09:09.199Z,2.80
2018-09-18T13:11:37.023Z,2.60
2018-09-18T13:14:04.968Z,3.03
2018-09-18T13:16:32.762Z,3.07
2018-09-18T13:19:00.574Z,2.70
2018-09-18T13:21:28.433Z,2.60
2018-09-18T13:23:57.413Z,2.50
2018-09-18T13:26:25.295Z,2.80
2018-09-18T13:28:53.106Z,3.07
2018-09-18T13:31:21.031Z,2.90
2018-09-18T13:33:49.285Z,2.77
2018-09-18T13:36:17.227Z,3.17
2018-09-18T13:38:45.159Z,2.80
2018-09-18T13:41:13.184Z,2.93
2018-09-18T13:43:42.118Z,3.07
2018-09-18T13:46:11.553Z,2.73
2018-09-18T13:48:39.502Z,2.53
2018-09-18T13:51:07.398Z,2.90
2018-09-18T13:53:35.990Z,2.73
2018-09-18T13:56:03.962Z,2.87
2018-09-18T13:58:32.102Z,2.77
2018-09-18T14:01:00.221Z,2.70
2018-09-18T14:03:28.297Z,2.90
2018-09-18T14:05:56.263Z,2.50
2018-09-18T14:08:24.530Z,2.57
2018-09-18T14:10:53.590Z,2.90
2018-09-18T14:13:21.757Z,2.53
2018-09-18T14:15:49.907Z,2.93
2018-09-18T14:18:18.171Z,2.93
2018-09-18T14:20:46.201Z,2.87
2018-09-18T14:23:14.469Z,2.67
2018-09-18T14:25:42.907Z,2.93
2018-09-18T14:28:11.581Z,2.40
2018-09-18T14:30:39.618Z,2.73
2018-09-18T14:33:09.583Z,3.20
2018-09-18T14:35:37.596Z,2.73
2018-09-18T14:38:05.644Z,2.60
2018-09-18T14:40:33.768Z,2.60
2018-09-18T14:43:01.770Z,2.60
2018-09-18T14:45:29.776Z,2.47
2018-09-18T14:47:57.751Z,2.60
2018-09-18T14:50:25.754Z,2.87
2018-09-18T14:52:54.016Z,2.67
2018-09-18T14:55:23.070Z,2.60
2018-09-18T14:57:51.370Z,2.87
2018-09-18T15:00:19.878Z,2.40
2018-09-18T15:02:48.018Z,2.67
2018-09-18T15:05:16.972Z,2.83
2018-09-18T15:07:44.959Z,2.60
2018-09-18T15:10:13.459Z,2.50
2018-09-18T15:12:42.357Z,2.63
2018-09-18T15:15:11.576Z,2.50
2018-09-18T15:17:39.829Z,2.70
2018-09-18T15:20:08.093Z,2.80
2018-09-18T15:22:36.980Z,2.63
2018-09-18T15:25:05.240Z,2.60
2018-09-18T15:27:33.344Z,2.60
2018-09-18T15:30:05.663Z,2.60
2018-09-18T15:32:34.742Z,3.27
2018-09-18T15:35:02.946Z,2.60
2018-09-18T15:37:34.416Z,2.83
2018-09-18T15:40:02.745Z,2.83
2018-09-18T15:42:30.808Z,2.90
2018-09-18T15:44:59.594Z,2.50
2018-09-18T15:47:27.945Z,2.57
2018-09-18T15:49:57.060Z,2.40
2018-09-18T15:52:26.071Z,2.93
2018-09-18T15:54:54.116Z,2.60
2018-09-18T15:57:39.453Z,2.53
2018-09-18T16:00:07.702Z,2.90
2018-09-18T16:02:36.031Z,2.90
2018-09-18T16:05:04.565Z,2.53
2018-09-18T16:07:33.741Z,3.00
2018-09-18T16:10:02.393Z,3.07
2018-09-18T16:12:30.576Z,2.80
2018-09-18T16:14:59.502Z,2.90
2018-09-18T16:17:27.683Z,2.60
2018-09-18T16:19:57.276Z,2.90
2018-09-18T16:22:25.355Z,3.07
2018-09-18T16:24:54.100Z,3.03
2018-09-18T16:27:22.139Z,3.10
2018-09-18T16:29:50.362Z,2.63
2018-09-18T16:32:18.346Z,2.50
2018-09-18T16:34:46.437Z,3.10
2018-09-18T16:37:14.380Z,3.30
2018-09-18T16:39:42.396Z,2.60
2018-09-18T16:42:10.643Z,3.03
2018-09-18T16:44:45.013Z,3.00
2018-09-18T16:47:12.924Z,2.63
2018-09-18T16:49:41.075Z,2.70
2018-09-18T16:52:09.392Z,2.80
2018-09-18T16:54:37.393Z,2.87
2018-09-18T16:57:12.526Z,3.10
2018-09-18T16:59:40.776Z,2.97
2018-09-18T17:02:09.841Z,3.17
2018-09-18T17:04:41.271Z,2.80
2018-09-18T17:07:10.742Z,2.70
2018-09-18T17:09:43.486Z,2.53
2018-09-18T17:12:11.823Z,2.87
2018-09-18T17:14:40.129Z,2.72
2018-09-18T17:17:08.214Z,2.77
2018-09-18T17:19:36.261Z,2.83
2018-09-18T17:22:04.437Z,2.73
2018-09-18T17:24:32.700Z,2.90
2018-09-18T17:27:01.109Z,3.33
2018-09-18T17:29:29.402Z,2.90
2018-09-18T17:31:57.867Z,3.30
2018-09-18T17:34:26.708Z,3.27
2018-09-18T17:36:55.065Z,3.37
2018-09-18T17:39:23.309Z,3.47
2018-09-18T17:41:51.914Z,3.77
2018-09-18T17:44:20.188Z,3.53
2018-09-18T17:46:52.563Z,3.77
2018-09-18T17:49:20.870Z,3.27
2018-09-18T17:51:49.004Z,3.30
2018-09-18T17:54:17.191Z,3.50
2018-09-18T17:56:45.537Z,3.63
2018-09-18T17:59:20.679Z,3.10
2018-09-18T18:01:49.158Z,3.70
2018-09-18T18:04:17.594Z,3.47
2018-09-18T18:06:45.937Z,3.80
2018-09-18T18:09:14.435Z,4.90
2018-09-18T18:11:42.773Z,4.23
2018-09-18T18:14:11.414Z,4.60
2018-09-18T18:16:39.822Z,4.20
2018-09-18T18:19:08.174Z,3.97
2018-09-18T18:21:36.471Z,3.70
2018-09-18T18:24:05.300Z,4.10
2018-09-18T18:26:33.849Z,3.53
2018-09-18T18:29:02.329Z,4.00
2018-09-18T18:31:30.795Z,3.50
2018-09-18T18:33:59.150Z,3.37
2018-09-18T18:36:27.476Z,3.37
2018-09-18T18:38:55.710Z,3.43
2018-09-18T18:41:24.154Z,3.60
2018-09-18T18:43:52.678Z,3.50
2018-09-18T18:46:21.388Z,3.80
2018-09-18T18:48:49.728Z,3.40
2018-09-18T18:51:18.120Z,3.03
2018-09-18T18:53:46.552Z,3.47
2018-09-18T18:56:14.922Z,3.50
2018-09-18T18:58:43.576Z,3.10
2018-09-18T19:01:12.055Z,3.60
2018-09-18T19:03:40.448Z,3.60
2018-09-18T19:06:10.168Z,3.73
2018-09-18T19:08:38.641Z,3.87
2018-09-18T19:11:06.938Z,3.40
2018-09-18T19:13:35.483Z,3.60
2018-09-18T19:16:03.611Z,3.27
2018-09-18T19:18:31.726Z,3.47
2018-09-18T19:21:00.034Z,3.93
2018-09-18T19:23:28.048Z,3.30
2018-09-18T19:25:56.367Z,3.73
2018-09-18T19:28:24.475Z,4.10
2018-09-18T19:30:52.868Z,3.73
2018-09-18T19:33:21.265Z,3.53
2018-09-18T19:35:49.355Z,3.70
2018-09-18T19:38:17.647Z,3.37
2018-09-18T19:40:46.134Z,3.73
2018-09-18T19:43:14.424Z,3.87
2018-09-18T19:45:42.763Z,4.27
2018-09-18T19:48:10.763Z,4.00
2018-09-18T19:50:38.881Z,3.67
2018-09-18T19:53:07.121Z,4.27
2018-09-18T19:55:35.189Z,4.17
2018-09-18T19:58:03.121Z,3.50
2018-09-18T20:00:32.120Z,3.77
2018-09-18T20:03:00.462Z,4.33
2018-09-18T20:05:28.678Z,4.13
2018-09-18T20:07:57.323Z,3.83
2018-09-18T20:10:25.315Z,4.00
2018-09-18T20:12:53.369Z,4.03
2018-09-18T20:15:21.506Z,4.13
2018-09-18T20:17:49.804Z,3.57
2018-09-18T20:20:17.940Z,3.67
2018-09-18T20:22:45.968Z,3.70
2018-09-18T20:25:14.304Z,3.43
2018-09-18T20:27:42.628Z,3.40
2018-09-18T20:30:11.006Z,3.50
2018-09-18T20:32:39.111Z,3.60
2018-09-18T20:35:08.420Z,3.23
2018-09-18T20:37:36.334Z,3.77
2018-09-18T20:40:04.517Z,3.67
2018-09-18T20:42:32.618Z,3.73
2018-09-18T20:45:00.916Z,3.47
2018-09-18T20:47:29.206Z,4.10
2018-09-18T20:49:57.138Z,3.50
2018-09-18T20:52:25.124Z,3.23
2018-09-18T20:54:53.717Z,3.60
2018-09-18T20:57:21.739Z,3.30
2018-09-18T20:59:49.723Z,3.90
2018-09-18T21:02:17.747Z,3.70
2018-09-18T21:04:45.707Z,3.40
2018-09-18T21:07:13.766Z,3.77
2018-09-18T21:09:42.055Z,3.50
2018-09-18T21:12:10.088Z,3.40
2018-09-18T21:14:38.734Z,3.57
2018-09-18T21:17:06.763Z,3.30
2018-09-18T21:19:34.676Z,3.60
2018-09-18T21:22:02.763Z,3.30
2018-09-18T21:24:30.820Z,3.33
2018-09-18T21:26:59.107Z,3.63
2018-09-18T21:29:27.200Z,3.50
2018-09-18T21:31:55.426Z,3.80
2018-09-18T21:34:23.905Z,3.60
2018-09-18T21:36:52.533Z,3.67
2018-09-18T21:39:20.896Z,3.87
2018-09-18T21:41:49.174Z,3.33
2018-09-18T21:44:17.325Z,3.07
2018-09-18T21:46:45.813Z,3.30
2018-09-18T21:49:14.114Z,3.87
2018-09-18T21:51:42.245Z,3.97
2018-09-18T21:54:10.798Z,3.57
2018-09-18T21:56:39.118Z,3.40
2018-09-18T21:59:07.701Z,3.47
2018-09-18T22:01:36.352Z,3.27
2018-09-18T22:04:04.718Z,4.00
2018-09-18T22:06:32.868Z,3.23
2018-09-18T22:09:01.411Z,3.50
2018-09-18T22:11:29.445Z,3.47
2018-09-18T22:13:57.413Z,3.70
2018-09-18T22:16:25.472Z,3.40
2018-09-18T22:18:53.540Z,3.17
2018-09-18T22:21:22.322Z,3.87
2018-09-18T22:23:50.293Z,3.87
2018-09-18T22:26:18.304Z,4.00
2018-09-18T22:28:46.252Z,4.03
2018-09-18T22:31:15.039Z,3.80
2018-09-18T22:33:43.438Z,3.60
2018-09-18T22:36:11.436Z,3.60
2018-09-18T22:38:39.493Z,3.73
2018-09-18T22:41:08.109Z,3.40
2018-09-18T22:43:36.121Z,3.30
2018-09-18T22:46:04.312Z,3.50
2018-09-18T22:48:32.304Z,3.60
2018-09-18T22:51:00.371Z,3.17
2018-09-18T22:53:28.738Z,4.37
2018-09-18T22:55:56.737Z,3.83
2018-09-18T22:58:24.785Z,4.03
2018-09-18T23:00:53.119Z,3.30
2018-09-18T23:03:21.214Z,3.83
2018-09-18T23:05:49.186Z,3.40
2018-09-18T23:08:17.210Z,3.67
2018-09-18T23:10:45.211Z,3.50
2018-09-18T23:13:13.245Z,3.47
2018-09-18T23:15:41.283Z,3.23
2018-09-18T23:18:09.273Z,3.47
2018-09-18T23:20:37.278Z,3.53
2018-09-18T23:23:06.355Z,3.50
2018-09-18T23:25:34.313Z,3.77
2018-09-18T23:28:02.300Z,3.73
2018-09-18T23:30:31.121Z,3.70
2018-09-18T23:32:59.044Z,3.80
2018-09-18T23:35:26.931Z,3.77
2018-09-18T23:37:55.294Z,3.43
2018-09-18T23:40:23.284Z,3.37
2018-09-18T23:42:51.266Z,3.60
2018-09-18T23:45:19.365Z,3.80
2018-09-18T23:47:48.009Z,3.37
2018-09-18T23:50:15.985Z,4.13
2018-09-18T23:52:44.090Z,3.33
2018-09-18T23:55:12.090Z,4.07
2018-09-18T23:57:40.035Z,3.90
